sensor_id;sensor_type;location;lat;lon;timestamp;P1;durP1;ratioP1;P2;durP2;ratioP2
8102;SDS011;4094;49.948;11.574;2022-09-28T00:00:29;6.73;;;6.30;;
8102;SDS011;4094;49.948;11.574;2022-09-28T00:03:00;7.17;;;6.70;;
8102;SDS011;4094;49.948;11.574;2022-09-28T00:05:29;6.70;;;6.40;;
8102;SDS011;4094;49.948;11.574;2022-09-28T00:07:59;6.67;;;6.33;;
8102;SDS011;4094;49.948;11.574;2022-09-28T00:10:28;6.53;;;6.03;;
8102;SDS011;4094;49.948;11.574;2022-09-28T00:12:57;6.73;;;6.23;;
8102;SDS011;4094;49.948;11.574;2022-09-28T00:15:29;6.50;;;6.10;;
8102;SDS011;4094;49.948;11.574;2022-09-28T00:17:58;6.47;;;6.07;;
8102;SDS011;4094;49.948;11.574;2022-09-28T00:20:27;6.03;;;5.73;;
8102;SDS011;4094;49.948;11.574;2022-09-28T00:22:56;6.70;;;6.20;;
8102;SDS011;4094;49.948;11.574;2022-09-28T00:25:25;6.93;;;6.30;;
8102;SDS011;4094;49.948;11.574;2022-09-28T00:27:56;6.77;;;6.37;;
8102;SDS011;4094;49.948;11.574;2022-09-28T00:30:25;6.80;;;6.33;;
8102;SDS011;4094;49.948;11.574;2022-09-28T00:32:55;7.17;;;6.60;;
8102;SDS011;4094;49.948;11.574;2022-09-28T00:35:24;6.73;;;6.23;;
8102;SDS011;4094;49.948;11.574;2022-09-28T00:37:53;7.00;;;6.60;;
8102;SDS011;4094;49.948;11.574;2022-09-28T00:40:22;7.00;;;6.50;;
8102;SDS011;4094;49.948;11.574;2022-09-28T00:42:51;6.60;;;6.10;;
8102;SDS011;4094;49.948;11.574;2022-09-28T00:45:20;8.70;;;6.60;;
8102;SDS011;4094;49.948;11.574;2022-09-28T00:48:50;7.17;;;6.73;;
8102;SDS011;4094;49.948;11.574;2022-09-28T00:51:23;7.03;;;6.53;;
8102;SDS011;4094;49.948;11.574;2022-09-28T00:53:54;6.33;;;5.93;;
8102;SDS011;4094;49.948;11.574;2022-09-28T00:56:25;7.03;;;6.53;;
8102;SDS011;4094;49.948;11.574;2022-09-28T00:58:56;6.67;;;6.07;;
8102;SDS011;4094;49.948;11.574;2022-09-28T01:01:29;7.40;;;6.70;;
8102;SDS011;4094;49.948;11.574;2022-09-28T01:04:00;7.17;;;6.57;;
8102;SDS011;4094;49.948;11.574;2022-09-28T01:06:32;6.87;;;6.47;;
8102;SDS011;4094;49.948;11.574;2022-09-28T01:09:04;7.63;;;7.13;;
8102;SDS011;4094;49.948;11.574;2022-09-28T01:11:37;6.90;;;6.50;;
8102;SDS011;4094;49.948;11.574;2022-09-28T01:14:10;6.80;;;6.37;;
8102;SDS011;4094;49.948;11.574;2022-09-28T01:16:42;6.63;;;6.23;;
8102;SDS011;4094;49.948;11.574;2022-09-28T01:19:41;7.73;;;7.03;;
8102;SDS011;4094;49.948;11.574;2022-09-28T01:22:29;6.93;;;6.50;;
8102;SDS011;4094;49.948;11.574;2022-09-28T01:25:23;7.17;;;6.70;;
8102;SDS011;4094;49.948;11.574;2022-09-28T01:28:06;6.90;;;6.50;;
8102;SDS011;4094;49.948;11.574;2022-09-28T01:30:40;6.93;;;6.43;;
8102;SDS011;4094;49.948;11.574;2022-09-28T01:33:17;7.30;;;6.70;;
8102;SDS011;4094;49.948;11.574;2022-09-28T01:35:50;7.00;;;6.40;;
8102;SDS011;4094;49.948;11.574;2022-09-28T01:38:24;7.40;;;6.90;;
8102;SDS011;4094;49.948;11.574;2022-09-28T01:40:58;7.00;;;6.60;;
8102;SDS011;4094;49.948;11.574;2022-09-28T01:43:30;6.60;;;6.20;;
8102;SDS011;4094;49.948;11.574;2022-09-28T01:46:05;6.80;;;6.30;;
8102;SDS011;4094;49.948;11.574;2022-09-28T01:48:42;7.40;;;6.90;;
8102;SDS011;4094;49.948;11.574;2022-09-28T01:51:18;6.80;;;6.10;;
8102;SDS011;4094;49.948;11.574;2022-09-28T01:53:52;7.13;;;6.63;;
8102;SDS011;4094;49.948;11.574;2022-09-28T01:56:25;6.93;;;6.53;;
8102;SDS011;4094;49.948;11.574;2022-09-28T01:59:03;6.90;;;6.40;;
8102;SDS011;4094;49.948;11.574;2022-09-28T02:01:36;8.37;;;7.53;;
8102;SDS011;4094;49.948;11.574;2022-09-28T02:04:10;8.03;;;7.33;;
8102;SDS011;4094;49.948;11.574;2022-09-28T02:06:48;8.33;;;7.50;;
8102;SDS011;4094;49.948;11.574;2022-09-28T02:09:20;7.33;;;6.83;;
8102;SDS011;4094;49.948;11.574;2022-09-28T02:12:00;7.03;;;6.53;;
8102;SDS011;4094;49.948;11.574;2022-09-28T02:14:34;7.00;;;6.60;;
8102;SDS011;4094;49.948;11.574;2022-09-28T02:17:07;7.50;;;7.00;;
8102;SDS011;4094;49.948;11.574;2022-09-28T02:19:37;7.27;;;6.73;;
8102;SDS011;4094;49.948;11.574;2022-09-28T02:22:10;6.40;;;5.93;;
8102;SDS011;4094;49.948;11.574;2022-09-28T02:24:52;6.97;;;6.37;;
8102;SDS011;4094;49.948;11.574;2022-09-28T02:27:28;7.10;;;6.70;;
8102;SDS011;4094;49.948;11.574;2022-09-28T02:30:05;7.10;;;6.60;;
8102;SDS011;4094;49.948;11.574;2022-09-28T02:32:38;7.57;;;6.80;;
8102;SDS011;4094;49.948;11.574;2022-09-28T02:35:13;6.80;;;6.40;;
8102;SDS011;4094;49.948;11.574;2022-09-28T02:37:44;7.20;;;6.80;;
8102;SDS011;4094;49.948;11.574;2022-09-28T02:40:15;7.60;;;6.90;;
8102;SDS011;4094;49.948;11.574;2022-09-28T02:42:51;7.57;;;6.97;;
8102;SDS011;4094;49.948;11.574;2022-09-28T02:45:36;7.50;;;7.00;;
8102;SDS011;4094;49.948;11.574;2022-09-28T02:48:27;7.53;;;7.03;;
8102;SDS011;4094;49.948;11.574;2022-09-28T02:51:37;7.10;;;6.60;;
8102;SDS011;4094;49.948;11.574;2022-09-28T02:54:16;7.37;;;6.97;;
8102;SDS011;4094;49.948;11.574;2022-09-28T02:57:09;7.23;;;6.73;;
8102;SDS011;4094;49.948;11.574;2022-09-28T02:59:48;7.23;;;6.73;;
8102;SDS011;4094;49.948;11.574;2022-09-28T03:02:27;6.90;;;6.40;;
8102;SDS011;4094;49.948;11.574;2022-09-28T03:05:11;7.20;;;6.70;;
8102;SDS011;4094;49.948;11.574;2022-09-28T03:07:48;7.27;;;6.77;;
8102;SDS011;4094;49.948;11.574;2022-09-28T03:10:26;7.10;;;6.60;;
8102;SDS011;4094;49.948;11.574;2022-09-28T03:13:00;7.03;;;6.50;;
8102;SDS011;4094;49.948;11.574;2022-09-28T03:15:32;7.17;;;6.67;;
8102;SDS011;4094;49.948;11.574;2022-09-28T03:18:08;6.47;;;6.17;;
8102;SDS011;4094;49.948;11.574;2022-09-28T03:20:38;7.33;;;6.83;;
8102;SDS011;4094;49.948;11.574;2022-09-28T03:23:07;6.77;;;6.47;;
8102;SDS011;4094;49.948;11.574;2022-09-28T03:25:52;7.30;;;6.87;;
8102;SDS011;4094;49.948;11.574;2022-09-28T03:28:22;7.60;;;7.00;;
8102;SDS011;4094;49.948;11.574;2022-09-28T03:30:52;6.87;;;6.37;;
8102;SDS011;4094;49.948;11.574;2022-09-28T03:33:23;7.00;;;6.57;;
8102;SDS011;4094;49.948;11.574;2022-09-28T03:35:53;7.60;;;6.90;;
8102;SDS011;4094;49.948;11.574;2022-09-28T03:38:22;6.60;;;6.03;;
8102;SDS011;4094;49.948;11.574;2022-09-28T03:40:52;6.83;;;6.27;;
8102;SDS011;4094;49.948;11.574;2022-09-28T03:43:22;6.37;;;6.07;;
8102;SDS011;4094;49.948;11.574;2022-09-28T03:45:57;6.70;;;6.30;;
8102;SDS011;4094;49.948;11.574;2022-09-28T03:48:31;7.30;;;6.40;;
8102;SDS011;4094;49.948;11.574;2022-09-28T03:51:02;6.67;;;6.27;;
8102;SDS011;4094;49.948;11.574;2022-09-28T03:53:35;7.03;;;6.63;;
8102;SDS011;4094;49.948;11.574;2022-09-28T03:56:07;6.77;;;6.27;;
8102;SDS011;4094;49.948;11.574;2022-09-28T03:58:39;6.27;;;5.87;;
8102;SDS011;4094;49.948;11.574;2022-09-28T04:01:11;6.37;;;6.07;;
8102;SDS011;4094;49.948;11.574;2022-09-28T04:03:51;6.73;;;6.20;;
8102;SDS011;4094;49.948;11.574;2022-09-28T04:06:22;7.03;;;6.53;;
8102;SDS011;4094;49.948;11.574;2022-09-28T04:08:52;6.50;;;6.10;;
8102;SDS011;4094;49.948;11.574;2022-09-28T04:11:21;6.10;;;5.67;;
8102;SDS011;4094;49.948;11.574;2022-09-28T04:13:51;6.23;;;5.93;;
8102;SDS011;4094;49.948;11.574;2022-09-28T04:16:22;7.13;;;6.50;;
8102;SDS011;4094;49.948;11.574;2022-09-28T04:19:07;6.90;;;6.47;;
8102;SDS011;4094;49.948;11.574;2022-09-28T04:21:45;6.13;;;5.83;;
8102;SDS011;4094;49.948;11.574;2022-09-28T04:24:17;6.53;;;6.03;;
8102;SDS011;4094;49.948;11.574;2022-09-28T04:26:47;6.30;;;6.00;;
8102;SDS011;4094;49.948;11.574;2022-09-28T04:29:17;6.33;;;6.03;;
8102;SDS011;4094;49.948;11.574;2022-09-28T04:31:51;6.57;;;6.17;;
8102;SDS011;4094;49.948;11.574;2022-09-28T04:34:36;6.43;;;6.03;;
8102;SDS011;4094;49.948;11.574;2022-09-28T04:37:10;6.80;;;6.40;;
8102;SDS011;4094;49.948;11.574;2022-09-28T04:39:41;7.20;;;6.80;;
8102;SDS011;4094;49.948;11.574;2022-09-28T04:42:17;6.23;;;5.93;;
8102;SDS011;4094;49.948;11.574;2022-09-28T04:44:49;6.70;;;6.30;;
8102;SDS011;4094;49.948;11.574;2022-09-28T04:47:18;6.77;;;6.37;;
8102;SDS011;4094;49.948;11.574;2022-09-28T04:50:09;6.77;;;6.37;;
8102;SDS011;4094;49.948;11.574;2022-09-28T04:52:59;6.73;;;6.40;;
8102;SDS011;4094;49.948;11.574;2022-09-28T04:55:29;6.10;;;5.80;;
8102;SDS011;4094;49.948;11.574;2022-09-28T04:58:10;6.70;;;6.30;;
8102;SDS011;4094;49.948;11.574;2022-09-28T05:00:39;6.80;;;6.33;;
8102;SDS011;4094;49.948;11.574;2022-09-28T05:03:19;6.97;;;6.47;;
8102;SDS011;4094;49.948;11.574;2022-09-28T05:06:17;7.33;;;6.70;;
8102;SDS011;4094;49.948;11.574;2022-09-28T05:08:55;6.77;;;6.40;;
8102;SDS011;4094;49.948;11.574;2022-09-28T05:11:24;6.40;;;6.10;;
8102;SDS011;4094;49.948;11.574;2022-09-28T05:13:53;6.33;;;6.03;;
8102;SDS011;4094;49.948;11.574;2022-09-28T05:16:24;6.80;;;6.40;;
8102;SDS011;4094;49.948;11.574;2022-09-28T05:19:12;7.00;;;6.60;;
8102;SDS011;4094;49.948;11.574;2022-09-28T05:21:44;6.70;;;6.20;;
8102;SDS011;4094;49.948;11.574;2022-09-28T05:24:15;6.80;;;6.47;;
8102;SDS011;4094;49.948;11.574;2022-09-28T05:26:49;6.43;;;6.13;;
8102;SDS011;4094;49.948;11.574;2022-09-28T05:29:19;7.00;;;6.60;;
8102;SDS011;4094;49.948;11.574;2022-09-28T05:32:08;6.33;;;5.97;;
8102;SDS011;4094;49.948;11.574;2022-09-28T05:34:49;6.90;;;6.50;;
8102;SDS011;4094;49.948;11.574;2022-09-28T05:37:26;5.73;;;5.23;;
8102;SDS011;4094;49.948;11.574;2022-09-28T05:39:55;6.30;;;5.80;;
8102;SDS011;4094;49.948;11.574;2022-09-28T05:42:26;5.83;;;5.53;;
8102;SDS011;4094;49.948;11.574;2022-09-28T05:44:57;6.53;;;5.97;;
8102;SDS011;4094;49.948;11.574;2022-09-28T05:47:28;6.03;;;5.73;;
8102;SDS011;4094;49.948;11.574;2022-09-28T05:49:57;6.40;;;6.10;;
8102;SDS011;4094;49.948;11.574;2022-09-28T05:52:28;5.73;;;5.43;;
8102;SDS011;4094;49.948;11.574;2022-09-28T05:54:59;6.23;;;5.73;;
8102;SDS011;4094;49.948;11.574;2022-09-28T05:57:30;6.00;;;5.70;;
8102;SDS011;4094;49.948;11.574;2022-09-28T06:00:00;6.40;;;6.10;;
8102;SDS011;4094;49.948;11.574;2022-09-28T06:02:39;6.13;;;5.83;;
8102;SDS011;4094;49.948;11.574;2022-09-28T06:05:11;6.13;;;5.73;;
8102;SDS011;4094;49.948;11.574;2022-09-28T06:07:43;6.23;;;5.73;;
8102;SDS011;4094;49.948;11.574;2022-09-28T06:10:13;6.33;;;6.03;;
8102;SDS011;4094;49.948;11.574;2022-09-28T06:12:43;6.50;;;6.10;;
8102;SDS011;4094;49.948;11.574;2022-09-28T06:15:15;6.33;;;5.83;;
8102;SDS011;4094;49.948;11.574;2022-09-28T06:17:46;6.17;;;5.87;;
8102;SDS011;4094;49.948;11.574;2022-09-28T06:20:34;6.30;;;5.93;;
8102;SDS011;4094;49.948;11.574;2022-09-28T06:23:11;6.00;;;5.70;;
8102;SDS011;4094;49.948;11.574;2022-09-28T06:25:42;6.00;;;5.70;;
8102;SDS011;4094;49.948;11.574;2022-09-28T06:28:16;5.67;;;5.37;;
8102;SDS011;4094;49.948;11.574;2022-09-28T06:30:47;5.53;;;5.23;;
8102;SDS011;4094;49.948;11.574;2022-09-28T06:33:18;5.73;;;5.33;;
8102;SDS011;4094;49.948;11.574;2022-09-28T06:35:49;6.77;;;6.17;;
8102;SDS011;4094;49.948;11.574;2022-09-28T06:38:20;5.97;;;5.57;;
8102;SDS011;4094;49.948;11.574;2022-09-28T06:40:57;6.43;;;5.93;;
8102;SDS011;4094;49.948;11.574;2022-09-28T06:43:26;6.00;;;5.70;;
8102;SDS011;4094;49.948;11.574;2022-09-28T06:46:19;5.87;;;5.57;;
8102;SDS011;4094;49.948;11.574;2022-09-28T06:48:49;6.00;;;5.70;;
8102;SDS011;4094;49.948;11.574;2022-09-28T06:51:39;6.10;;;5.60;;
8102;SDS011;4094;49.948;11.574;2022-09-28T06:54:21;5.70;;;5.40;;
8102;SDS011;4094;49.948;11.574;2022-09-28T06:57:11;5.93;;;5.70;;
8102;SDS011;4094;49.948;11.574;2022-09-28T06:59:41;6.00;;;5.70;;
8102;SDS011;4094;49.948;11.574;2022-09-28T07:02:11;5.90;;;5.60;;
8102;SDS011;4094;49.948;11.574;2022-09-28T07:05:04;6.07;;;5.77;;
8102;SDS011;4094;49.948;11.574;2022-09-28T07:07:52;6.10;;;5.70;;
8102;SDS011;4094;49.948;11.574;2022-09-28T07:10:42;5.70;;;5.40;;
8102;SDS011;4094;49.948;11.574;2022-09-28T07:13:24;6.20;;;5.90;;
8102;SDS011;4094;49.948;11.574;2022-09-28T07:16:15;6.37;;;5.87;;
8102;SDS011;4094;49.948;11.574;2022-09-28T07:18:50;6.27;;;5.87;;
8102;SDS011;4094;49.948;11.574;2022-09-28T07:21:20;6.23;;;5.83;;
8102;SDS011;4094;49.948;11.574;2022-09-28T07:23:59;6.50;;;6.10;;
8102;SDS011;4094;49.948;11.574;2022-09-28T07:26:36;6.33;;;5.77;;
8102;SDS011;4094;49.948;11.574;2022-09-28T07:29:24;6.70;;;6.10;;
8102;SDS011;4094;49.948;11.574;2022-09-28T07:32:17;6.47;;;6.17;;
8102;SDS011;4094;49.948;11.574;2022-09-28T07:35:11;6.47;;;6.07;;
8102;SDS011;4094;49.948;11.574;2022-09-28T07:37:55;6.50;;;6.10;;
8102;SDS011;4094;49.948;11.574;2022-09-28T07:40:27;5.70;;;5.33;;
8102;SDS011;4094;49.948;11.574;2022-09-28T07:43:17;6.13;;;5.73;;
8102;SDS011;4094;49.948;11.574;2022-09-28T07:45:51;5.43;;;5.13;;
8102;SDS011;4094;49.948;11.574;2022-09-28T07:48:21;5.60;;;5.30;;
8102;SDS011;4094;49.948;11.574;2022-09-28T07:51:05;5.80;;;5.50;;
8102;SDS011;4094;49.948;11.574;2022-09-28T07:53:40;5.63;;;5.33;;
8102;SDS011;4094;49.948;11.574;2022-09-28T07:56:42;5.40;;;5.20;;
8102;SDS011;4094;49.948;11.574;2022-09-28T07:59:36;5.80;;;5.50;;
8102;SDS011;4094;49.948;11.574;2022-09-28T08:02:05;5.90;;;5.60;;
8102;SDS011;4094;49.948;11.574;2022-09-28T08:04:34;5.43;;;5.13;;
8102;SDS011;4094;49.948;11.574;2022-09-28T08:07:06;5.20;;;4.90;;
8102;SDS011;4094;49.948;11.574;2022-09-28T08:09:36;5.77;;;5.43;;
8102;SDS011;4094;49.948;11.574;2022-09-28T08:12:28;5.43;;;5.00;;
8102;SDS011;4094;49.948;11.574;2022-09-28T08:15:21;5.47;;;5.17;;
8102;SDS011;4094;49.948;11.574;2022-09-28T08:18:09;5.73;;;5.43;;
8102;SDS011;4094;49.948;11.574;2022-09-28T08:20:38;4.90;;;4.70;;
8102;SDS011;4094;49.948;11.574;2022-09-28T08:23:26;5.03;;;4.83;;
8102;SDS011;4094;49.948;11.574;2022-09-28T08:25:55;5.47;;;5.17;;
8102;SDS011;4094;49.948;11.574;2022-09-28T08:28:26;5.03;;;4.83;;
8102;SDS011;4094;49.948;11.574;2022-09-28T08:30:59;5.20;;;5.00;;
8102;SDS011;4094;49.948;11.574;2022-09-28T08:34:01;5.50;;;5.20;;
8102;SDS011;4094;49.948;11.574;2022-09-28T08:36:49;5.00;;;4.70;;
8102;SDS011;4094;49.948;11.574;2022-09-28T08:39:45;5.07;;;4.77;;
8102;SDS011;4094;49.948;11.574;2022-09-28T08:42:38;4.73;;;4.53;;
8102;SDS011;4094;49.948;11.574;2022-09-28T08:45:29;4.93;;;4.73;;
8102;SDS011;4094;49.948;11.574;2022-09-28T08:48:22;4.53;;;4.33;;
8102;SDS011;4094;49.948;11.574;2022-09-28T08:51:48;4.90;;;4.60;;
8102;SDS011;4094;49.948;11.574;2022-09-28T08:54:39;4.17;;;3.87;;
8102;SDS011;4094;49.948;11.574;2022-09-28T08:57:31;4.30;;;4.10;;
8102;SDS011;4094;49.948;11.574;2022-09-28T09:00:08;4.83;;;4.63;;
8102;SDS011;4094;49.948;11.574;2022-09-28T09:02:45;4.83;;;4.53;;
8102;SDS011;4094;49.948;11.574;2022-09-28T09:05:19;4.43;;;4.23;;
8102;SDS011;4094;49.948;11.574;2022-09-28T09:08:07;5.20;;;4.90;;
8102;SDS011;4094;49.948;11.574;2022-09-28T09:10:50;5.47;;;5.17;;
8102;SDS011;4094;49.948;11.574;2022-09-28T09:13:42;4.70;;;4.50;;
8102;SDS011;4094;49.948;11.574;2022-09-28T09:16:27;5.37;;;5.03;;
8102;SDS011;4094;49.948;11.574;2022-09-28T09:19:28;5.13;;;4.80;;
8102;SDS011;4094;49.948;11.574;2022-09-28T09:22:27;4.90;;;4.70;;
8102;SDS011;4094;49.948;11.574;2022-09-28T09:25:13;5.10;;;4.83;;
8102;SDS011;4094;49.948;11.574;2022-09-28T09:27:59;4.73;;;4.47;;
8102;SDS011;4094;49.948;11.574;2022-09-28T09:31:05;4.90;;;4.60;;
8102;SDS011;4094;49.948;11.574;2022-09-28T09:37:15;4.23;;;4.03;;
8102;SDS011;4094;49.948;11.574;2022-09-28T09:40:30;6.47;;;4.43;;
8102;SDS011;4094;49.948;11.574;2022-09-28T09:43:49;4.93;;;4.63;;
8102;SDS011;4094;49.948;11.574;2022-09-28T09:46:48;5.27;;;4.90;;
8102;SDS011;4094;49.948;11.574;2022-09-28T09:49:27;4.80;;;4.53;;
8102;SDS011;4094;49.948;11.574;2022-09-28T09:52:02;5.13;;;4.87;;
8102;SDS011;4094;49.948;11.574;2022-09-28T09:54:41;4.70;;;4.50;;
8102;SDS011;4094;49.948;11.574;2022-09-28T09:57:49;5.17;;;4.97;;
8102;SDS011;4094;49.948;11.574;2022-09-28T10:00:39;4.80;;;4.60;;
8102;SDS011;4094;49.948;11.574;2022-09-28T10:03:21;4.60;;;4.40;;
8102;SDS011;4094;49.948;11.574;2022-09-28T10:06:02;4.50;;;4.23;;
8102;SDS011;4094;49.948;11.574;2022-09-28T10:08:40;4.30;;;4.00;;
8102;SDS011;4094;49.948;11.574;2022-09-28T10:11:15;4.97;;;4.67;;
8102;SDS011;4094;49.948;11.574;2022-09-28T10:13:54;4.87;;;4.57;;
8102;SDS011;4094;49.948;11.574;2022-09-28T10:16:41;4.93;;;4.73;;
8102;SDS011;4094;49.948;11.574;2022-09-28T10:19:29;5.20;;;5.00;;
8102;SDS011;4094;49.948;11.574;2022-09-28T10:22:20;5.03;;;4.83;;
8102;SDS011;4094;49.948;11.574;2022-09-28T10:24:53;5.00;;;4.70;;
8102;SDS011;4094;49.948;11.574;2022-09-28T10:27:27;5.10;;;4.70;;
8102;SDS011;4094;49.948;11.574;2022-09-28T10:30:10;5.10;;;4.80;;
8102;SDS011;4094;49.948;11.574;2022-09-28T10:32:45;4.83;;;4.63;;
8102;SDS011;4094;49.948;11.574;2022-09-28T10:35:22;5.37;;;5.07;;
8102;SDS011;4094;49.948;11.574;2022-09-28T10:37:59;4.70;;;4.50;;
8102;SDS011;4094;49.948;11.574;2022-09-28T10:40:45;4.43;;;4.23;;
8102;SDS011;4094;49.948;11.574;2022-09-28T10:43:23;4.73;;;4.53;;
8102;SDS011;4094;49.948;11.574;2022-09-28T10:46:03;4.80;;;4.50;;
8102;SDS011;4094;49.948;11.574;2022-09-28T10:48:44;5.33;;;5.03;;
8102;SDS011;4094;49.948;11.574;2022-09-28T10:51:19;5.30;;;5.00;;
8102;SDS011;4094;49.948;11.574;2022-09-28T10:54:12;4.97;;;4.67;;
8102;SDS011;4094;49.948;11.574;2022-09-28T10:56:49;5.10;;;4.90;;
8102;SDS011;4094;49.948;11.574;2022-09-28T10:59:36;5.10;;;4.80;;
8102;SDS011;4094;49.948;11.574;2022-09-28T11:02:27;5.50;;;5.10;;
8102;SDS011;4094;49.948;11.574;2022-09-28T11:05:06;5.30;;;4.90;;
8102;SDS011;4094;49.948;11.574;2022-09-28T11:07:47;5.47;;;5.13;;
8102;SDS011;4094;49.948;11.574;2022-09-28T11:10:23;5.40;;;4.93;;
8102;SDS011;4094;49.948;11.574;2022-09-28T11:12:58;5.20;;;5.00;;
8102;SDS011;4094;49.948;11.574;2022-09-28T11:15:29;5.07;;;4.87;;
8102;SDS011;4094;49.948;11.574;2022-09-28T11:18:19;5.20;;;4.80;;
8102;SDS011;4094;49.948;11.574;2022-09-28T11:21:06;4.77;;;4.47;;
8102;SDS011;4094;49.948;11.574;2022-09-28T11:23:41;5.27;;;4.97;;
8102;SDS011;4094;49.948;11.574;2022-09-28T11:26:23;4.90;;;4.70;;
8102;SDS011;4094;49.948;11.574;2022-09-28T11:28:53;5.30;;;4.90;;
8102;SDS011;4094;49.948;11.574;2022-09-28T11:31:32;5.00;;;4.70;;
8102;SDS011;4094;49.948;11.574;2022-09-28T11:34:13;4.83;;;4.60;;
8102;SDS011;4094;49.948;11.574;2022-09-28T11:37:12;4.70;;;4.40;;
8102;SDS011;4094;49.948;11.574;2022-09-28T11:40:07;4.57;;;4.27;;
8102;SDS011;4094;49.948;11.574;2022-09-28T11:42:49;4.63;;;4.23;;
8102;SDS011;4094;49.948;11.574;2022-09-28T11:45:31;4.90;;;4.60;;
8102;SDS011;4094;49.948;11.574;2022-09-28T11:48:13;4.40;;;4.20;;
8102;SDS011;4094;49.948;11.574;2022-09-28T11:50:48;4.40;;;4.20;;
8102;SDS011;4094;49.948;11.574;2022-09-28T11:53:22;5.23;;;4.90;;
8102;SDS011;4094;49.948;11.574;2022-09-28T11:56:02;4.77;;;4.57;;
8102;SDS011;4094;49.948;11.574;2022-09-28T11:58:39;4.87;;;4.60;;
8102;SDS011;4094;49.948;11.574;2022-09-28T12:01:13;5.17;;;4.87;;
8102;SDS011;4094;49.948;11.574;2022-09-28T12:04:12;5.37;;;4.93;;
8102;SDS011;4094;49.948;11.574;2022-09-28T12:06:48;4.93;;;4.63;;
8102;SDS011;4094;49.948;11.574;2022-09-28T12:09:26;4.90;;;4.70;;
8102;SDS011;4094;49.948;11.574;2022-09-28T12:12:18;4.47;;;4.17;;
8102;SDS011;4094;49.948;11.574;2022-09-28T12:14:56;4.10;;;3.80;;
8102;SDS011;4094;49.948;11.574;2022-09-28T12:17:29;3.97;;;3.60;;
8102;SDS011;4094;49.948;11.574;2022-09-28T12:20:05;3.50;;;3.27;;
8102;SDS011;4094;49.948;11.574;2022-09-28T12:22:45;3.30;;;3.00;;
8102;SDS011;4094;49.948;11.574;2022-09-28T12:25:21;2.87;;;2.67;;
8102;SDS011;4094;49.948;11.574;2022-09-28T12:27:52;2.33;;;1.90;;
8102;SDS011;4094;49.948;11.574;2022-09-28T12:30:27;1.70;;;1.60;;
8102;SDS011;4094;49.948;11.574;2022-09-28T12:33:03;1.57;;;1.43;;
8102;SDS011;4094;49.948;11.574;2022-09-28T12:35:38;1.50;;;1.40;;
8102;SDS011;4094;49.948;11.574;2022-09-28T12:38:21;1.50;;;1.40;;
8102;SDS011;4094;49.948;11.574;2022-09-28T12:41:44;1.60;;;1.50;;
8102;SDS011;4094;49.948;11.574;2022-09-28T12:44:31;2.53;;;1.80;;
8102;SDS011;4094;49.948;11.574;2022-09-28T12:47:20;1.90;;;1.80;;
8102;SDS011;4094;49.948;11.574;2022-09-28T12:50:17;2.00;;;1.90;;
8102;SDS011;4094;49.948;11.574;2022-09-28T12:53:22;2.30;;;2.20;;
8102;SDS011;4094;49.948;11.574;2022-09-28T12:56:07;2.60;;;2.50;;
8102;SDS011;4094;49.948;11.574;2022-09-28T12:58:51;3.23;;;2.73;;
8102;SDS011;4094;49.948;11.574;2022-09-28T13:01:35;3.40;;;3.10;;
8102;SDS011;4094;49.948;11.574;2022-09-28T13:04:18;3.00;;;2.90;;
8102;SDS011;4094;49.948;11.574;2022-09-28T13:07:05;3.27;;;3.07;;
8102;SDS011;4094;49.948;11.574;2022-09-28T13:09:43;3.07;;;2.80;;
8102;SDS011;4094;49.948;11.574;2022-09-28T13:12:23;3.20;;;3.00;;
8102;SDS011;4094;49.948;11.574;2022-09-28T13:15:07;3.20;;;3.00;;
8102;SDS011;4094;49.948;11.574;2022-09-28T13:18:02;3.07;;;2.97;;
8102;SDS011;4094;49.948;11.574;2022-09-28T13:20:44;3.40;;;3.20;;
8102;SDS011;4094;49.948;11.574;2022-09-28T13:23:24;3.50;;;3.30;;
8102;SDS011;4094;49.948;11.574;2022-09-28T13:25:59;3.30;;;3.20;;
8102;SDS011;4094;49.948;11.574;2022-09-28T13:28:36;3.50;;;3.30;;
8102;SDS011;4094;49.948;11.574;2022-09-28T13:31:06;3.93;;;3.63;;
8102;SDS011;4094;49.948;11.574;2022-09-28T13:33:38;3.50;;;3.30;;
8102;SDS011;4094;49.948;11.574;2022-09-28T13:42:04;3.77;;;3.57;;
8102;SDS011;4094;49.948;11.574;2022-09-28T13:44:42;3.87;;;3.57;;
8102;SDS011;4094;49.948;11.574;2022-09-28T13:47:30;3.53;;;3.33;;
8102;SDS011;4094;49.948;11.574;2022-09-28T13:50:30;3.87;;;3.57;;
8102;SDS011;4094;49.948;11.574;2022-09-28T13:53:07;3.80;;;3.60;;
8102;SDS011;4094;49.948;11.574;2022-09-28T13:55:49;4.40;;;4.10;;
8102;SDS011;4094;49.948;11.574;2022-09-28T13:58:26;3.90;;;3.70;;
8102;SDS011;4094;49.948;11.574;2022-09-28T14:01:00;4.10;;;3.90;;
8102;SDS011;4094;49.948;11.574;2022-09-28T14:03:41;4.00;;;3.80;;
8102;SDS011;4094;49.948;11.574;2022-09-28T14:06:22;4.20;;;4.00;;
8102;SDS011;4094;49.948;11.574;2022-09-28T14:09:06;4.00;;;3.80;;
8102;SDS011;4094;49.948;11.574;2022-09-28T14:21:01;4.30;;;4.10;;
8102;SDS011;4094;49.948;11.574;2022-09-28T14:23:56;4.67;;;4.27;;
8102;SDS011;4094;49.948;11.574;2022-09-28T14:29:34;4.43;;;4.07;;
8102;SDS011;4094;49.948;11.574;2022-09-28T14:34:55;4.13;;;3.87;;
8102;SDS011;4094;49.948;11.574;2022-09-28T14:37:26;4.50;;;4.17;;
8102;SDS011;4094;49.948;11.574;2022-09-28T14:40:17;4.67;;;3.70;;
8102;SDS011;4094;49.948;11.574;2022-09-28T14:43:21;4.77;;;4.37;;
8102;SDS011;4094;49.948;11.574;2022-09-28T14:48:57;4.43;;;4.13;;
8102;SDS011;4094;49.948;11.574;2022-09-28T14:54:38;4.80;;;4.40;;
8102;SDS011;4094;49.948;11.574;2022-09-28T14:57:14;4.27;;;4.03;;
8102;SDS011;4094;49.948;11.574;2022-09-28T14:59:45;4.50;;;4.20;;
8102;SDS011;4094;49.948;11.574;2022-09-28T15:02:17;3.90;;;3.70;;
8102;SDS011;4094;49.948;11.574;2022-09-28T15:04:52;4.13;;;3.93;;
8102;SDS011;4094;49.948;11.574;2022-09-28T15:07:24;4.30;;;4.10;;
8102;SDS011;4094;49.948;11.574;2022-09-28T15:09:55;4.47;;;4.17;;
8102;SDS011;4094;49.948;11.574;2022-09-28T15:12:26;4.30;;;3.97;;
8102;SDS011;4094;49.948;11.574;2022-09-28T15:14:57;4.43;;;4.13;;
8102;SDS011;4094;49.948;11.574;2022-09-28T15:17:30;4.20;;;4.00;;
8102;SDS011;4094;49.948;11.574;2022-09-28T15:20:14;4.67;;;3.97;;
8102;SDS011;4094;49.948;11.574;2022-09-28T15:22:52;4.53;;;4.23;;
8102;SDS011;4094;49.948;11.574;2022-09-28T15:25:25;4.27;;;3.97;;
8102;SDS011;4094;49.948;11.574;2022-09-28T15:27:56;4.27;;;4.07;;
8102;SDS011;4094;49.948;11.574;2022-09-28T15:30:29;4.57;;;4.27;;
8102;SDS011;4094;49.948;11.574;2022-09-28T15:33:00;4.60;;;4.30;;
8102;SDS011;4094;49.948;11.574;2022-09-28T15:35:47;4.60;;;4.30;;
8102;SDS011;4094;49.948;11.574;2022-09-28T15:38:23;4.43;;;4.23;;
8102;SDS011;4094;49.948;11.574;2022-09-28T15:40:53;4.57;;;4.37;;
8102;SDS011;4094;49.948;11.574;2022-09-28T15:43:23;5.50;;;4.43;;
8102;SDS011;4094;49.948;11.574;2022-09-28T15:46:03;4.30;;;4.00;;
8102;SDS011;4094;49.948;11.574;2022-09-28T15:48:36;4.20;;;4.00;;
8102;SDS011;4094;49.948;11.574;2022-09-28T15:51:16;3.93;;;3.73;;
8102;SDS011;4094;49.948;11.574;2022-09-28T15:53:49;3.90;;;3.70;;
8102;SDS011;4094;49.948;11.574;2022-09-28T15:56:24;4.30;;;4.00;;
8102;SDS011;4094;49.948;11.574;2022-09-28T15:59:07;4.10;;;3.90;;
8102;SDS011;4094;49.948;11.574;2022-09-28T16:01:37;4.70;;;4.40;;
8102;SDS011;4094;49.948;11.574;2022-09-28T16:07:19;4.87;;;4.47;;
8102;SDS011;4094;49.948;11.574;2022-09-28T16:09:52;4.40;;;4.10;;
8102;SDS011;4094;49.948;11.574;2022-09-28T16:12:25;4.60;;;4.20;;
8102;SDS011;4094;49.948;11.574;2022-09-28T16:15:00;4.63;;;4.33;;
8102;SDS011;4094;49.948;11.574;2022-09-28T16:17:32;4.70;;;4.40;;
8102;SDS011;4094;49.948;11.574;2022-09-28T16:20:03;4.50;;;4.20;;
8102;SDS011;4094;49.948;11.574;2022-09-28T16:22:47;5.23;;;4.63;;
8102;SDS011;4094;49.948;11.574;2022-09-28T16:25:17;4.77;;;4.47;;
8102;SDS011;4094;49.948;11.574;2022-09-28T16:27:50;4.40;;;4.20;;
8102;SDS011;4094;49.948;11.574;2022-09-28T16:30:22;4.43;;;4.03;;
8102;SDS011;4094;49.948;11.574;2022-09-28T16:32:53;4.77;;;4.43;;
8102;SDS011;4094;49.948;11.574;2022-09-28T16:35:27;4.83;;;4.50;;
8102;SDS011;4094;49.948;11.574;2022-09-28T16:38:02;4.93;;;4.63;;
8102;SDS011;4094;49.948;11.574;2022-09-28T16:40:39;4.80;;;4.40;;
8102;SDS011;4094;49.948;11.574;2022-09-28T16:43:15;5.00;;;4.50;;